createdAt,value
2022-09-12T00:01:37.561Z,16.20
2022-09-12T00:04:04.368Z,16.58
2022-09-12T00:06:33.890Z,16.67
2022-09-12T00:09:06.911Z,16.52
2022-09-12T00:11:39.478Z,16.73
2022-09-12T00:14:07.617Z,16.47
2022-09-12T00:16:35.904Z,16.66
2022-09-12T00:19:04.192Z,16.90
2022-09-12T00:21:33.350Z,16.56
2022-09-12T00:24:00.183Z,16.26
2022-09-12T00:26:27.135Z,16.19
2022-09-12T00:28:53.958Z,16.00
2022-09-12T00:31:24.141Z,15.87
2022-09-12T00:33:51.871Z,16.24
2022-09-12T00:36:21.353Z,16.16
2022-09-12T00:38:49.640Z,16.01
2022-09-12T00:41:21.179Z,16.27
2022-09-12T00:43:50.291Z,16.34
2022-09-12T00:46:29.101Z,16.30
2022-09-12T00:49:01.534Z,16.17
2022-09-12T00:51:31.008Z,16.32
2022-09-12T00:53:59.377Z,16.29
2022-09-12T00:56:27.367Z,16.25
2022-09-12T00:59:15.242Z,15.73
2022-09-12T01:01:44.698Z,15.88
2022-09-12T01:04:12.849Z,15.95
2022-09-12T01:06:42.264Z,15.85
2022-09-12T01:09:12.086Z,16.00
2022-09-12T01:11:40.341Z,15.74
2022-09-12T01:14:08.953Z,15.63
2022-09-12T01:16:37.140Z,15.40
2022-09-12T01:19:31.945Z,15.37
2022-09-12T01:22:30.856Z,15.49
2022-09-12T01:25:09.598Z,15.67
2022-09-12T01:27:47.220Z,15.78
2022-09-12T01:30:25.905Z,15.92
2022-09-12T01:32:52.390Z,15.95
2022-09-12T01:35:40.070Z,15.91
2022-09-12T01:38:31.412Z,15.79
2022-09-12T01:41:01.538Z,15.54
2022-09-12T01:43:38.284Z,15.77
2022-09-12T01:46:24.435Z,15.73
2022-09-12T01:49:12.862Z,15.72
2022-09-12T01:51:46.553Z,15.63
2022-09-12T01:54:26.028Z,15.74
2022-09-12T01:56:57.740Z,15.75
2022-09-12T01:59:38.686Z,15.78
2022-09-12T02:02:13.592Z,15.61
2022-09-12T02:04:53.163Z,15.75
2022-09-12T02:07:49.547Z,15.33
2022-09-12T02:10:28.052Z,15.21
2022-09-12T02:13:03.704Z,14.92
2022-09-12T02:15:37.112Z,15.29
2022-09-12T02:18:06.070Z,15.62
2022-09-12T02:20:47.859Z,15.59
2022-09-12T02:23:22.386Z,15.72
2022-09-12T02:25:54.557Z,15.55
2022-09-12T02:28:35.371Z,15.53
2022-09-12T02:31:17.360Z,15.72
2022-09-12T02:33:57.834Z,15.73
2022-09-12T02:36:50.037Z,15.45
2022-09-12T02:39:20.862Z,15.57
2022-09-12T02:41:51.228Z,15.09
2022-09-12T02:44:18.236Z,14.91
2022-09-12T02:46:50.712Z,14.80
2022-09-12T02:49:17.398Z,14.84
2022-09-12T02:51:45.579Z,14.71
2022-09-12T02:54:13.662Z,14.68
2022-09-12T02:56:43.428Z,15.23
2022-09-12T02:59:13.909Z,15.27
2022-09-12T03:01:51.522Z,15.34
2022-09-12T03:04:47.385Z,15.50
2022-09-12T03:07:44.607Z,15.48
2022-09-12T03:10:32.712Z,15.12
2022-09-12T03:13:17.387Z,15.08
2022-09-12T03:16:17.510Z,15.24
2022-09-12T03:19:19.258Z,15.12
2022-09-12T03:22:04.435Z,15.17
2022-09-12T03:24:38.113Z,15.21
2022-09-12T03:27:29.359Z,15.23
2022-09-12T03:29:56.365Z,15.24
2022-09-12T03:32:47.589Z,15.15
2022-09-12T03:35:17.944Z,15.05
2022-09-12T03:37:48.051Z,15.17
2022-09-12T03:40:15.597Z,15.23
2022-09-12T03:42:42.682Z,14.82
2022-09-12T03:45:10.616Z,15.03
2022-09-12T03:47:37.422Z,15.17
2022-09-12T03:50:04.640Z,14.54
2022-09-12T03:52:31.194Z,14.81
2022-09-12T03:54:57.724Z,14.86
2022-09-12T03:57:24.257Z,14.55
2022-09-12T03:59:50.812Z,14.47
2022-09-12T04:02:17.747Z,14.34
2022-09-12T04:04:45.061Z,14.24
2022-09-12T04:07:11.602Z,14.31
2022-09-12T04:09:38.230Z,14.81
2022-09-12T04:12:05.242Z,14.59
2022-09-12T04:14:31.758Z,14.81
2022-09-12T04:16:58.343Z,14.75
2022-09-12T04:19:26.118Z,14.60
2022-09-12T04:21:52.991Z,14.46
2022-09-12T04:24:19.587Z,14.02
2022-09-12T04:26:46.119Z,14.27
2022-09-12T04:29:12.983Z,14.44
2022-09-12T04:31:39.548Z,14.54
2022-09-12T04:34:06.781Z,14.57
2022-09-12T04:36:34.242Z,14.56
2022-09-12T04:39:01.946Z,14.44
2022-09-12T04:41:31.305Z,14.40
2022-09-12T04:44:03.097Z,14.32
2022-09-12T04:46:32.279Z,14.37
2022-09-12T04:48:59.090Z,14.17
2022-09-12T04:51:31.550Z,14.16
2022-09-12T04:54:00.939Z,14.36
2022-09-12T04:56:28.777Z,14.35
2022-09-12T04:58:59.525Z,14.35
2022-09-12T05:01:28.016Z,14.20
2022-09-12T05:03:55.190Z,14.12
2022-09-12T05:06:25.111Z,14.28
2022-09-12T05:08:52.919Z,14.21
2022-09-12T05:11:24.944Z,14.17
2022-09-12T05:13:52.992Z,14.18
2022-09-12T05:16:21.037Z,14.02
2022-09-12T05:18:48.976Z,13.90
2022-09-12T05:21:17.617Z,13.84
2022-09-12T05:23:44.592Z,13.78
2022-09-12T05:26:14.426Z,13.56
2022-09-12T05:28:41.929Z,13.51
2022-09-12T05:31:14.878Z,13.61
2022-09-12T05:33:43.425Z,13.86
2022-09-12T05:36:13.213Z,13.99
2022-09-12T05:38:42.141Z,14.01
2022-09-12T05:41:16.958Z,14.01
2022-09-12T05:43:45.531Z,14.11
2022-09-12T05:46:16.965Z,14.10
2022-09-12T05:48:44.853Z,13.94
2022-09-12T05:51:20.302Z,13.93
2022-09-12T05:53:49.982Z,14.02
2022-09-12T05:56:18.889Z,14.08
2022-09-12T05:58:47.970Z,14.14
2022-09-12T06:01:19.233Z,14.12
2022-09-12T06:03:49.015Z,13.91
2022-09-12T06:06:18.846Z,14.09
2022-09-12T06:08:47.647Z,14.22
2022-09-12T06:11:16.935Z,14.36
2022-09-12T06:13:44.342Z,14.41
2022-09-12T06:16:14.616Z,14.47
2022-09-12T06:18:42.103Z,14.42
2022-09-12T06:21:11.616Z,14.47
2022-09-12T06:23:39.987Z,14.48
2022-09-12T06:26:08.066Z,14.53
2022-09-12T06:28:36.724Z,14.49
2022-09-12T06:31:12.462Z,14.55
2022-09-12T06:33:44.605Z,14.65
2022-09-12T06:36:14.330Z,14.61
2022-09-12T06:38:41.036Z,14.64
2022-09-12T06:41:12.404Z,14.60
2022-09-12T06:43:40.394Z,14.64
2022-09-12T06:46:07.878Z,14.69
2022-09-12T06:48:38.321Z,14.76
2022-09-12T06:51:11.356Z,14.82
2022-09-12T06:53:38.185Z,14.92
2022-09-12T06:56:34.146Z,14.99
2022-09-12T06:59:00.678Z,14.90
2022-09-12T07:01:29.388Z,14.97
2022-09-12T07:03:59.219Z,14.78
2022-09-12T07:06:32.214Z,14.72
2022-09-12T07:09:00.891Z,14.46
2022-09-12T07:11:31.814Z,14.47
2022-09-12T07:13:59.957Z,14.38
2022-09-12T07:16:26.630Z,14.56
2022-09-12T07:18:55.661Z,14.76
2022-09-12T07:21:22.920Z,14.85
2022-09-12T07:23:51.711Z,15.13
2022-09-12T07:26:18.796Z,15.14
2022-09-12T07:28:45.580Z,15.34
2022-09-12T07:31:17.615Z,15.51
2022-09-12T07:33:44.406Z,15.58
2022-09-12T07:36:16.210Z,15.62
2022-09-12T07:38:43.957Z,15.74
2022-09-12T07:41:15.318Z,15.62
2022-09-12T07:43:44.769Z,15.52
2022-09-12T07:46:11.704Z,15.40
2022-09-12T07:48:39.149Z,15.19
2022-09-12T07:51:08.002Z,15.42
2022-09-12T07:53:40.107Z,15.51
2022-09-12T07:56:08.220Z,15.83
2022-09-12T07:58:36.555Z,15.90
2022-09-12T08:01:07.242Z,16.06
2022-09-12T08:03:34.110Z,16.12
2022-09-12T08:06:11.804Z,15.98
2022-09-12T08:08:39.020Z,15.86
2022-09-12T08:11:08.982Z,16.14
2022-09-12T08:13:37.072Z,16.22
2022-09-12T08:16:07.737Z,16.22
2022-09-12T08:18:36.405Z,16.12
2022-09-12T08:21:08.548Z,16.43
2022-09-12T08:23:35.158Z,16.46
2022-09-12T08:26:06.135Z,16.75
2022-09-12T08:28:34.010Z,16.90
2022-09-12T08:31:05.555Z,16.98
2022-09-12T08:33:33.703Z,16.87
2022-09-12T08:36:10.442Z,16.90
2022-09-12T08:38:39.138Z,17.25
2022-09-12T08:41:42.828Z,17.48
2022-09-12T08:44:39.872Z,17.32
2022-09-12T08:47:36.986Z,17.42
2022-09-12T08:50:09.780Z,17.56
2022-09-12T08:52:45.144Z,17.63
2022-09-12T08:55:56.234Z,17.46
2022-09-12T08:58:24.849Z,17.71
2022-09-12T09:01:16.460Z,17.90
2022-09-12T09:03:44.266Z,18.22
2022-09-12T09:06:36.147Z,18.16
2022-09-12T09:09:14.777Z,18.22
2022-09-12T09:12:06.527Z,18.20
2022-09-12T09:14:58.959Z,18.37
2022-09-12T09:17:40.549Z,18.52
2022-09-12T09:20:37.087Z,18.57
2022-09-12T09:23:28.579Z,18.49
2022-09-12T09:26:14.595Z,18.40
2022-09-12T09:28:52.531Z,18.57
2022-09-12T09:31:22.033Z,18.81
2022-09-12T09:33:56.624Z,19.00
2022-09-12T09:36:29.623Z,18.95
2022-09-12T09:39:05.891Z,19.07
2022-09-12T09:41:39.752Z,19.51
2022-09-12T09:46:38.324Z,19.39
2022-09-12T09:49:07.017Z,19.57
2022-09-12T09:51:37.599Z,19.46
2022-09-12T09:54:18.184Z,19.51
2022-09-12T09:56:44.793Z,19.77
2022-09-12T09:59:19.706Z,19.87
2022-09-12T10:01:54.948Z,19.85
2022-09-12T10:04:31.227Z,19.98
2022-09-12T10:07:00.843Z,20.04
2022-09-12T10:09:35.082Z,20.10
2022-09-12T10:12:20.969Z,20.10
2022-09-12T10:15:02.237Z,20.26
2022-09-12T10:17:39.249Z,20.37
2022-09-12T10:20:33.771Z,20.66
2022-09-12T10:23:03.638Z,20.80
2022-09-12T10:25:30.214Z,21.00
2022-09-12T10:28:00.322Z,20.81
2022-09-12T10:30:30.697Z,20.61
2022-09-12T10:33:06.401Z,20.78
2022-09-12T10:35:45.659Z,20.85
2022-09-12T10:38:32.708Z,20.74
2022-09-12T10:41:03.548Z,20.99
2022-09-12T10:43:35.999Z,21.19
2022-09-12T10:46:14.840Z,21.27
2022-09-12T10:48:42.326Z,21.26
2022-09-12T10:51:29.236Z,21.31
2022-09-12T10:53:59.986Z,21.23
2022-09-12T10:56:33.472Z,21.27
2022-09-12T10:59:05.637Z,21.26
2022-09-12T11:01:32.163Z,21.46
2022-09-12T11:04:35.812Z,21.40
2022-09-12T11:07:21.359Z,21.40
2022-09-12T11:10:13.797Z,21.58
2022-09-12T11:13:05.844Z,21.66
2022-09-12T11:15:45.750Z,21.94
2022-09-12T11:18:30.557Z,21.59
2022-09-12T11:21:13.946Z,21.67
2022-09-12T11:24:00.768Z,21.61
2022-09-12T11:27:01.131Z,21.71
2022-09-12T11:29:48.312Z,21.79
2022-09-12T11:32:43.269Z,21.96
2022-09-12T11:35:17.692Z,21.89
2022-09-12T11:37:51.134Z,21.88
2022-09-12T11:40:23.770Z,21.84
2022-09-12T11:42:54.574Z,22.22
2022-09-12T11:45:29.986Z,22.24
2022-09-12T11:48:03.952Z,22.39
2022-09-12T11:50:32.029Z,22.33
2022-09-12T11:53:11.232Z,22.39
2022-09-12T11:55:53.239Z,22.35
2022-09-12T11:58:24.820Z,22.71
2022-09-12T12:00:56.269Z,22.44
2022-09-12T12:03:30.722Z,22.40
2022-09-12T12:06:10.755Z,22.31
2022-09-12T12:08:41.089Z,22.82
2022-09-12T12:11:09.276Z,22.67
2022-09-12T12:13:56.536Z,22.44
2022-09-12T12:16:25.958Z,22.74
2022-09-12T12:19:01.981Z,22.63
2022-09-12T12:21:29.221Z,22.86
2022-09-12T12:24:07.563Z,23.00
2022-09-12T12:26:40.176Z,23.26
2022-09-12T12:29:13.441Z,23.33
2022-09-12T12:32:19.843Z,23.19
2022-09-12T12:34:47.617Z,23.25
2022-09-12T12:37:20.278Z,23.54
2022-09-12T12:39:47.849Z,23.46
2022-09-12T12:42:32.582Z,23.32
2022-09-12T12:45:06.504Z,23.53
2022-09-12T12:47:36.015Z,23.58
2022-09-12T12:50:07.910Z,23.35
2022-09-12T12:52:50.506Z,23.05
2022-09-12T12:55:38.594Z,23.23
2022-09-12T12:58:38.755Z,23.43
2022-09-12T13:01:16.762Z,23.94
2022-09-12T13:03:54.108Z,23.63
2022-09-12T13:06:36.866Z,23.60
2022-09-12T13:09:07.863Z,23.39
2022-09-12T13:11:38.571Z,23.13
2022-09-12T13:14:40.030Z,23.31
2022-09-12T13:17:07.839Z,23.44
2022-09-12T13:19:37.312Z,23.87
2022-09-12T13:22:09.778Z,23.82
2022-09-12T13:24:52.467Z,23.50
2022-09-12T13:27:22.105Z,23.37
2022-09-12T13:29:49.495Z,23.67
2022-09-12T13:32:18.045Z,23.64
2022-09-12T13:35:04.364Z,23.35
2022-09-12T13:37:48.643Z,23.74
2022-09-12T13:40:32.453Z,24.05
2022-09-12T13:43:23.212Z,24.27
2022-09-12T13:45:50.700Z,24.79
2022-09-12T13:48:21.962Z,25.35
2022-09-12T13:50:56.976Z,25.21
2022-09-12T13:53:26.599Z,24.78
2022-09-12T13:55:57.858Z,25.19
2022-09-12T13:58:29.962Z,25.14
2022-09-12T14:01:15.743Z,24.99
2022-09-12T14:04:12.667Z,24.58
2022-09-12T14:06:50.818Z,24.92
2022-09-12T14:09:26.903Z,24.97
2022-09-12T14:11:53.809Z,25.73
2022-09-12T14:14:37.807Z,25.72
2022-09-12T14:17:33.611Z,25.84
2022-09-12T14:20:03.804Z,26.05
2022-09-12T14:22:31.076Z,26.19
2022-09-12T14:24:59.502Z,26.35
2022-09-12T14:27:30.114Z,26.69
2022-09-12T14:30:02.801Z,26.34
2022-09-12T14:32:29.474Z,25.93
2022-09-12T14:35:12.217Z,25.71
2022-09-12T14:37:39.674Z,25.55
2022-09-12T14:40:26.613Z,26.00
2022-09-12T14:42:55.160Z,26.00
2022-09-12T14:45:28.588Z,25.47
2022-09-12T14:47:55.728Z,25.38
2022-09-12T14:50:27.676Z,25.91
2022-09-12T14:53:27.902Z,25.99
2022-09-12T14:56:03.576Z,26.28
2022-09-12T14:58:30.478Z,26.64
2022-09-12T15:00:57.708Z,27.51
2022-09-12T15:03:27.762Z,27.61
2022-09-12T15:05:55.112Z,27.52
2022-09-12T15:08:21.687Z,27.47
2022-09-12T15:10:48.692Z,26.89
2022-09-12T15:13:21.033Z,26.25
2022-09-12T15:15:50.397Z,25.92
2022-09-12T15:18:18.254Z,25.71
2022-09-12T15:20:47.285Z,25.37
2022-09-12T15:23:23.392Z,25.66
2022-09-12T15:25:50.148Z,25.32
2022-09-12T15:28:24.030Z,25.70
2022-09-12T15:30:53.081Z,25.54
2022-09-12T15:33:22.932Z,25.21
2022-09-12T15:35:52.401Z,25.37
2022-09-12T15:38:23.036Z,26.36
2022-09-12T15:40:53.725Z,27.35
2022-09-12T15:43:22.490Z,27.74
2022-09-12T15:45:51.518Z,26.48
2022-09-12T15:48:21.468Z,25.69
2022-09-12T15:50:48.449Z,25.07
2022-09-12T15:53:16.568Z,25.39
2022-09-12T15:55:43.942Z,25.91
2022-09-12T15:58:10.714Z,25.66
2022-09-12T16:00:37.357Z,25.80
2022-09-12T16:03:04.263Z,25.19
2022-09-12T16:05:30.940Z,25.48
2022-09-12T16:07:57.522Z,25.50
2022-09-12T16:10:27.775Z,25.47
2022-09-12T16:12:54.541Z,25.34
2022-09-12T16:15:23.991Z,25.15
2022-09-12T16:17:50.731Z,25.40
2022-09-12T16:20:18.832Z,25.33
2022-09-12T16:22:45.482Z,25.39
2022-09-12T16:25:13.466Z,25.44
2022-09-12T16:27:41.578Z,25.48
2022-09-12T16:30:11.415Z,25.31
2022-09-12T16:32:38.261Z,25.26
2022-09-12T16:35:10.343Z,25.15
2022-09-12T16:37:38.204Z,24.97
2022-09-12T16:40:07.559Z,25.13
2022-09-12T16:42:37.431Z,25.19
2022-09-12T16:45:06.727Z,25.36
2022-09-12T16:47:34.002Z,25.14
2022-09-12T16:50:04.434Z,24.77
2022-09-12T16:52:31.467Z,24.92
2022-09-12T16:54:58.175Z,24.91
2022-09-12T16:57:24.740Z,24.68
2022-09-12T16:59:52.373Z,24.71
2022-09-12T17:02:20.951Z,24.76
2022-09-12T17:04:50.202Z,24.74
2022-09-12T17:07:16.931Z,24.69
2022-09-12T17:09:47.789Z,24.63
2022-09-12T17:12:14.754Z,24.59
2022-09-12T17:14:41.273Z,24.54
2022-09-12T17:17:07.961Z,24.53
2022-09-12T17:19:34.463Z,24.45
2022-09-12T17:22:03.377Z,24.47
2022-09-12T17:24:29.974Z,24.35
2022-09-12T17:26:57.184Z,24.42
2022-09-12T17:29:23.809Z,24.35
2022-09-12T17:31:50.478Z,24.26
2022-09-12T17:34:17.730Z,24.13
2022-09-12T17:36:45.634Z,24.15
2022-09-12T17:39:13.590Z,24.11
2022-09-12T17:41:42.715Z,24.14
2022-09-12T17:44:11.754Z,24.02
2022-09-12T17:46:39.260Z,23.92
2022-09-12T17:49:08.624Z,23.89
2022-09-12T17:51:35.449Z,23.86
2022-09-12T17:54:06.541Z,23.79
2022-09-12T17:56:35.113Z,23.67
2022-09-12T17:59:02.047Z,23.36
2022-09-12T18:01:48.247Z,23.48
2022-09-12T18:04:14.885Z,23.56
2022-09-12T18:06:47.711Z,23.58
2022-09-12T18:09:17.618Z,23.49
2022-09-12T18:11:44.397Z,23.46
2022-09-12T18:14:14.166Z,23.45
2022-09-12T18:16:42.096Z,23.47
2022-09-12T18:19:09.498Z,23.38
2022-09-12T18:21:36.113Z,23.58
2022-09-12T18:24:03.090Z,23.59
2022-09-12T18:26:30.758Z,23.55
2022-09-12T18:28:58.156Z,23.48
2022-09-12T18:31:27.520Z,23.41
2022-09-12T18:33:54.695Z,23.48
2022-09-12T18:36:22.091Z,23.37
2022-09-12T18:38:49.807Z,23.35
2022-09-12T18:41:19.591Z,23.21
2022-09-12T18:43:47.098Z,23.25
2022-09-12T18:46:17.515Z,23.16
2022-09-12T18:48:45.031Z,23.20
2022-09-12T18:51:22.301Z,23.09
2022-09-12T18:53:54.826Z,23.03
2022-09-12T18:56:32.144Z,23.05
2022-09-12T18:58:59.826Z,22.97
2022-09-12T19:01:31.511Z,22.97
2022-09-12T19:03:59.147Z,22.92
2022-09-12T19:06:28.562Z,22.85
2022-09-12T19:08:56.364Z,22.69
2022-09-12T19:11:24.445Z,22.56
2022-09-12T19:13:52.272Z,22.58
2022-09-12T19:16:21.769Z,22.62
2022-09-12T19:18:49.680Z,22.45
2022-09-12T19:21:19.776Z,22.56
2022-09-12T19:23:46.373Z,22.51
2022-09-12T19:26:14.914Z,22.46
2022-09-12T19:28:42.407Z,22.37
2022-09-12T19:31:12.158Z,22.36
2022-09-12T19:33:39.296Z,22.38
2022-09-12T19:36:27.555Z,22.16
2022-09-12T19:39:00.975Z,21.81
2022-09-12T19:41:27.619Z,21.81
2022-09-12T19:43:56.094Z,21.74
2022-09-12T19:46:24.371Z,21.77
2022-09-12T19:48:52.472Z,21.88
2022-09-12T19:51:21.354Z,21.83
2022-09-12T19:53:50.146Z,21.54
2022-09-12T19:56:17.071Z,21.68
2022-09-12T19:58:46.276Z,21.61
2022-09-12T20:01:17.309Z,21.41
2022-09-12T20:03:44.193Z,21.25
2022-09-12T20:06:15.698Z,21.24
2022-09-12T20:08:43.847Z,20.97
2022-09-12T20:11:13.058Z,20.64
2022-09-12T20:13:39.885Z,20.76
2022-09-12T20:16:07.587Z,20.78
2022-09-12T20:18:34.559Z,20.93
2022-09-12T20:21:09.226Z,20.80
2022-09-12T20:23:35.822Z,20.88
2022-09-12T20:26:02.586Z,20.72
2022-09-12T20:28:29.200Z,20.79
2022-09-12T20:31:00.981Z,20.98
2022-09-12T20:33:27.624Z,21.07
2022-09-12T20:36:00.914Z,21.15
2022-09-12T20:38:27.575Z,21.08
2022-09-12T20:40:54.132Z,21.09
2022-09-12T20:43:21.467Z,20.74
2022-09-12T20:45:48.040Z,20.67
2022-09-12T20:48:14.572Z,20.79
2022-09-12T20:50:41.092Z,20.86
2022-09-12T20:53:07.601Z,20.47
2022-09-12T20:55:34.125Z,20.45
2022-09-12T20:58:00.757Z,20.18
2022-09-12T21:00:27.315Z,20.07
2022-09-12T21:02:53.895Z,19.98
2022-09-12T21:05:20.446Z,19.73
2022-09-12T21:07:47.079Z,19.79
2022-09-12T21:10:13.757Z,19.55
2022-09-12T21:12:40.290Z,19.60
2022-09-12T21:15:07.349Z,19.67
2022-09-12T21:17:33.983Z,19.41
2022-09-12T21:20:00.597Z,19.46
2022-09-12T21:22:27.160Z,19.54
2022-09-12T21:24:53.693Z,19.26
2022-09-12T21:27:20.534Z,19.34
2022-09-12T21:29:47.084Z,19.34
2022-09-12T21:32:14.345Z,19.69
2022-09-12T21:34:41.792Z,19.56
2022-09-12T21:37:08.339Z,19.73
2022-09-12T21:39:36.017Z,19.86
2022-09-12T21:42:02.605Z,20.08
2022-09-12T21:44:29.205Z,20.18
2022-09-12T21:46:55.776Z,19.87
2022-09-12T21:49:22.287Z,20.06
2022-09-12T21:51:48.894Z,20.09
2022-09-12T21:54:15.442Z,20.09
2022-09-12T21:56:42.032Z,20.11
2022-09-12T21:59:08.658Z,19.92
2022-09-12T22:01:35.638Z,20.06
2022-09-12T22:04:02.470Z,19.91
2022-09-12T22:06:28.989Z,19.84
2022-09-12T22:08:56.249Z,19.97
2022-09-12T22:11:23.632Z,20.02
2022-09-12T22:13:50.254Z,20.19
2022-09-12T22:16:17.725Z,20.09
2022-09-12T22:18:46.838Z,20.10
2022-09-12T22:21:15.948Z,20.01
2022-09-12T22:24:01.280Z,19.70
2022-09-12T22:26:28.925Z,19.75
2022-09-12T22:28:56.162Z,19.88
2022-09-12T22:31:23.070Z,19.91
2022-09-12T22:33:51.446Z,19.98
2022-09-12T22:36:18.178Z,19.92
2022-09-12T22:38:44.763Z,19.92
2022-09-12T22:41:12.296Z,19.70
2022-09-12T22:43:39.306Z,19.65
2022-09-12T22:46:07.838Z,19.39
2022-09-12T22:48:34.683Z,19.12
2022-09-12T22:51:01.176Z,18.79
2022-09-12T22:53:28.440Z,19.08
2022-09-12T22:55:55.044Z,19.31
2022-09-12T22:58:21.622Z,19.37
2022-09-12T23:00:51.512Z,19.37
2022-09-12T23:03:19.125Z,19.16
2022-09-12T23:05:47.201Z,19.22
2022-09-12T23:08:14.770Z,19.27
2022-09-12T23:10:41.328Z,19.14
2022-09-12T23:13:07.870Z,18.88
2022-09-12T23:15:34.406Z,18.73
2022-09-12T23:18:00.953Z,18.61
2022-09-12T23:20:27.577Z,18.55
2022-09-12T23:22:54.743Z,18.91
2022-09-12T23:25:26.261Z,19.10
2022-09-12T23:27:53.441Z,18.89
2022-09-12T23:30:21.424Z,18.80
2022-09-12T23:32:49.106Z,19.21
2022-09-12T23:35:18.366Z,18.65
2022-09-12T23:37:45.436Z,18.88
2022-09-12T23:40:12.049Z,18.64
2022-09-12T23:42:38.594Z,19.10
2022-09-12T23:45:05.419Z,18.73
2022-09-12T23:47:31.955Z,18.58
2022-09-12T23:49:58.518Z,18.52
2022-09-12T23:52:25.067Z,18.39
2022-09-12T23:54:51.578Z,18.37
2022-09-12T23:57:18.127Z,18.55
2022-09-12T23:59:44.742Z,18.57
